Time;durP1;ratioP1;P1;durP2;ratioP2;P2;SDS_P1;SDS_P2;PMS_P1;PMS_P2;Temp;Humidity;BMP_temperature;BMP_pressure;BME280_temperature;BME280_humidity;BME280_pressure;Samples;Min_cycle;Max_cycle;Signal;HPM_P1;HPM_P2
2022/05/28 00:00:38;;;;;;;2.27;1.30;;;;;;;;;;5071018;28;21005;-76
2022/05/28 00:03:05;;;;;;;1.60;1.50;;;;;;;;;;5071066;28;20860;-75
2022/05/28 00:05:32;;;;;;;1.80;1.53;;;;;;;;;;5070492;28;20443;-76
2022/05/28 00:07:59;;;;;;;1.80;1.50;;;;;;;;;;5069977;28;20897;-75
2022/05/28 00:10:27;;;;;;;3.40;2.27;;;;;;;;;;5070971;28;20760;-75
2022/05/28 00:12:58;;;;;;;3.90;1.70;;;;;;;;;;5070450;28;20454;-75
2022/05/28 00:15:25;;;;;;;2.50;2.07;;;;;;;;;;5070520;28;20449;-75
2022/05/28 00:17:52;;;;;;;2.43;2.00;;;;;;;;;;5070378;28;20450;-75
2022/05/28 00:20:19;;;;;;;3.40;1.93;;;;;;;;;;5070306;28;20486;-75
2022/05/28 00:22:46;;;;;;;2.13;1.63;;;;;;;;;;5070218;28;20507;-75
2022/05/28 00:25:15;;;;;;;1.67;1.50;;;;;;;;;;5070626;28;20445;-76
2022/05/28 00:27:42;;;;;;;3.73;2.07;;;;;;;;;;5071729;28;20453;-75
2022/05/28 00:30:13;;;;;;;2.07;1.87;;;;;;;;;;5073522;28;20454;-74
2022/05/28 00:32:40;;;;;;;4.20;1.60;;;;;;;;;;5074030;28;20484;-72
2022/05/28 00:35:09;;;;;;;3.30;1.90;;;;;;;;;;5074425;28;20449;-76
2022/05/28 00:37:37;;;;;;;3.53;1.70;;;;;;;;;;5074455;28;20450;-75
2022/05/28 00:40:05;;;;;;;2.40;2.00;;;;;;;;;;5073504;28;20485;-75
2022/05/28 00:42:32;;;;;;;4.43;2.20;;;;;;;;;;5073958;28;20450;-75
2022/05/28 00:44:59;;;;;;;1.77;1.60;;;;;;;;;;5073506;28;20774;-75
2022/05/28 00:47:28;;;;;;;1.77;1.37;;;;;;;;;;5074044;28;20454;-75
2022/05/28 00:49:56;;;;;;;2.30;1.90;;;;;;;;;;5072958;28;20488;-75
2022/05/28 00:52:24;;;;;;;5.93;2.30;;;;;;;;;;5073892;28;20456;-75
2022/05/28 00:54:52;;;;;;;1.93;1.60;;;;;;;;;;5073598;28;21017;-74
2022/05/28 00:57:20;;;;;;;6.03;2.30;;;;;;;;;;5073699;28;20452;-75
2022/05/28 00:59:48;;;;;;;1.87;1.67;;;;;;;;;;5072563;28;20591;-75
2022/05/28 01:02:19;;;;;;;2.37;2.17;;;;;;;;;;5073752;28;20481;-75
2022/05/28 01:04:50;;;;;;;3.13;2.30;;;;;;;;;;5073062;28;20433;-75
2022/05/28 01:07:25;;;;;;;2.80;2.30;;;;;;;;;;5073483;28;20449;-75
2022/05/28 01:09:57;;;;;;;2.60;1.67;;;;;;;;;;5072915;28;20441;-74
2022/05/28 01:12:29;;;;;;;2.10;1.90;;;;;;;;;;5073662;28;20462;-74
2022/05/28 01:14:59;;;;;;;2.20;1.83;;;;;;;;;;5073137;28;20770;-75
2022/05/28 01:17:28;;;;;;;3.07;1.77;;;;;;;;;;5073375;28;20958;-75
2022/05/28 01:20:01;;;;;;;2.83;2.50;;;;;;;;;;5072395;28;20572;-75
2022/05/28 01:22:36;;;;;;;3.20;1.67;;;;;;;;;;5073424;28;20536;-74
2022/05/28 01:25:06;;;;;;;4.13;2.17;;;;;;;;;;5072693;28;20447;-75
2022/05/28 01:27:41;;;;;;;2.57;1.70;;;;;;;;;;5073204;28;20933;-75
2022/05/28 01:30:10;;;;;;;3.07;2.00;;;;;;;;;;5072817;28;20468;-75
2022/05/28 01:32:38;;;;;;;4.03;2.03;;;;;;;;;;5073031;28;20487;-75
2022/05/28 01:35:07;;;;;;;2.50;2.10;;;;;;;;;;5073326;28;20506;-76
2022/05/28 01:37:34;;;;;;;2.40;1.70;;;;;;;;;;5072908;28;20999;-75
2022/05/28 01:40:02;;;;;;;3.30;1.70;;;;;;;;;;5071598;28;20481;-76
2022/05/28 01:42:30;;;;;;;5.60;2.17;;;;;;;;;;5073094;28;20450;-75
2022/05/28 01:45:00;;;;;;;2.17;1.77;;;;;;;;;;5072132;28;20921;-74
2022/05/28 01:47:28;;;;;;;1.60;1.50;;;;;;;;;;5072979;28;20445;-75
2022/05/28 01:49:56;;;;;;;1.63;1.53;;;;;;;;;;5072205;28;20453;-76
2022/05/28 01:52:24;;;;;;;4.10;1.70;;;;;;;;;;5072849;28;20449;-76
2022/05/28 01:54:52;;;;;;;2.43;1.40;;;;;;;;;;5072071;28;21004;-75
2022/05/28 01:57:19;;;;;;;2.07;1.63;;;;;;;;;;5072778;28;20454;-75
2022/05/28 01:59:46;;;;;;;3.80;1.73;;;;;;;;;;5071761;28;20494;-76
2022/05/28 02:02:16;;;;;;;2.80;1.60;;;;;;;;;;5072606;28;20446;-76
2022/05/28 02:04:45;;;;;;;1.90;1.50;;;;;;;;;;5072064;28;20455;-75
2022/05/28 02:07:12;;;;;;;2.83;1.67;;;;;;;;;;5072496;28;20449;-75
2022/05/28 02:09:43;;;;;;;2.53;1.73;;;;;;;;;;5071911;28;20522;-73
2022/05/28 02:12:21;;;;;;;3.07;1.70;;;;;;;;;;5072342;28;20477;-75
2022/05/28 02:14:53;;;;;;;2.40;1.70;;;;;;;;;;5071865;28;20466;-75
2022/05/28 02:17:23;;;;;;;3.90;1.67;;;;;;;;;;5059356;28;20441;-75
2022/05/28 02:19:55;;;;;;;1.53;1.30;;;;;;;;;;5071094;28;20967;-76
2022/05/28 02:22:27;;;;;;;3.00;1.83;;;;;;;;;;5072427;28;20784;-76
2022/05/28 02:24:57;;;;;;;1.83;1.07;;;;;;;;;;5071451;28;20441;-76
2022/05/28 02:27:26;;;;;;;2.10;1.23;;;;;;;;;;5072095;28;20446;-76
2022/05/28 02:29:53;;;;;;;1.63;1.20;;;;;;;;;;5070815;28;20552;-76
2022/05/28 02:32:21;;;;;;;1.80;1.33;;;;;;;;;;5072020;28;20994;-76
2022/05/28 02:34:50;;;;;;;3.77;1.60;;;;;;;;;;5071397;28;21015;-76
2022/05/28 02:37:19;;;;;;;3.00;1.50;;;;;;;;;;5072198;28;20453;-76
2022/05/28 02:39:46;;;;;;;4.57;1.53;;;;;;;;;;5071043;28;20485;-75
2022/05/28 02:42:13;;;;;;;3.97;1.07;;;;;;;;;;5072033;28;20928;-75
2022/05/28 02:44:40;;;;;;;3.37;1.20;;;;;;;;;;5071455;28;20446;-74
2022/05/28 02:47:07;;;;;;;2.17;1.37;;;;;;;;;;5073884;28;20537;-76
2022/05/28 02:49:35;;;;;;;2.17;1.50;;;;;;;;;;5073126;28;20452;-77
2022/05/28 02:52:04;;;;;;;2.83;1.47;;;;;;;;;;5075194;28;20849;-75
2022/05/28 02:54:31;;;;;;;1.53;1.00;;;;;;;;;;5076598;28;20456;-75
2022/05/28 02:56:58;;;;;;;4.93;1.73;;;;;;;;;;5075567;28;20448;-74
2022/05/28 02:59:25;;;;;;;4.50;1.10;;;;;;;;;;5075909;28;20451;-75
2022/05/28 03:01:53;;;;;;;2.33;1.33;;;;;;;;;;5075841;28;20535;-76
2022/05/28 03:04:20;;;;;;;6.63;1.20;;;;;;;;;;5074029;28;20455;-76
2022/05/28 03:06:47;;;;;;;3.17;1.10;;;;;;;;;;5073578;28;20465;-76
2022/05/28 03:09:17;;;;;;;3.43;1.23;;;;;;;;;;5058628;28;20543;-75
2022/05/28 03:11:44;;;;;;;1.00;0.90;;;;;;;;;;5070913;28;20460;-75
2022/05/28 03:14:12;;;;;;;1.17;1.00;;;;;;;;;;5071466;28;20460;-76
2022/05/28 03:16:42;;;;;;;3.87;1.10;;;;;;;;;;5071168;28;20461;-73
2022/05/28 03:19:09;;;;;;;2.13;1.03;;;;;;;;;;5071594;28;20451;-76
2022/05/28 03:21:36;;;;;;;3.50;1.40;;;;;;;;;;5071579;28;20490;-76
2022/05/28 03:24:06;;;;;;;7.40;1.03;;;;;;;;;;5070620;28;20448;-77
2022/05/28 03:26:34;;;;;;;2.10;0.90;;;;;;;;;;5071146;28;20541;-76
2022/05/28 03:29:02;;;;;;;6.70;2.03;;;;;;;;;;5070398;28;20486;-76
2022/05/28 03:31:29;;;;;;;1.93;1.47;;;;;;;;;;5070827;28;20475;-75
2022/05/28 03:33:57;;;;;;;1.43;1.20;;;;;;;;;;5070490;28;20792;-76
2022/05/28 03:36:25;;;;;;;1.80;1.10;;;;;;;;;;5071169;28;20453;-76
2022/05/28 03:38:52;;;;;;;4.40;1.10;;;;;;;;;;5060168;28;20543;-77
2022/05/28 03:41:19;;;;;;;1.20;1.07;;;;;;;;;;5071211;28;20910;-76
2022/05/28 03:43:48;;;;;;;2.37;1.00;;;;;;;;;;5070797;28;20510;-76
2022/05/28 03:46:20;;;;;;;4.53;1.47;;;;;;;;;;5070787;28;20535;-76
2022/05/28 03:48:48;;;;;;;2.40;1.13;;;;;;;;;;5070058;28;20458;-75
2022/05/28 03:51:15;;;;;;;2.87;1.43;;;;;;;;;;5070839;28;20467;-75
2022/05/28 03:53:42;;;;;;;1.63;0.90;;;;;;;;;;5070691;28;20457;-75
2022/05/28 03:56:09;;;;;;;2.70;1.00;;;;;;;;;;5071424;28;20478;-75
2022/05/28 03:58:36;;;;;;;1.33;0.90;;;;;;;;;;5071096;28;20448;-75
2022/05/28 04:01:05;;;;;;;2.73;1.40;;;;;;;;;;5071168;28;20491;-75
2022/05/28 04:03:32;;;;;;;1.47;1.10;;;;;;;;;;5075166;28;20458;-76
2022/05/28 04:05:59;;;;;;;5.03;1.20;;;;;;;;;;5061373;28;20537;-74
2022/05/28 04:08:27;;;;;;;2.40;1.37;;;;;;;;;;5074698;28;20454;-75
2022/05/28 04:10:54;;;;;;;6.50;1.13;;;;;;;;;;5074841;28;20791;-75
2022/05/28 04:13:21;;;;;;;2.60;1.20;;;;;;;;;;5075165;28;20446;-76
2022/05/28 04:15:49;;;;;;;0.93;0.83;;;;;;;;;;5074308;28;20457;-76
2022/05/28 04:18:18;;;;;;;6.90;3.50;;;;;;;;;;5074656;28;20525;-76
2022/05/28 04:20:45;;;;;;;1.40;1.03;;;;;;;;;;5074411;28;20488;-76
2022/05/28 04:23:12;;;;;;;2.87;1.70;;;;;;;;;;5074864;28;20809;-76
2022/05/28 04:25:39;;;;;;;1.30;1.10;;;20.50;23.30;;;;;;5075028;28;20545;-76
2022/05/28 04:28:06;;;;;;;2.37;1.40;;;11.10;1.00;;;;;;5074066;28;20568;-76
2022/05/28 04:30:33;;;;;;;2.80;1.10;;;10.90;1.00;;;;;;5074755;28;20463;-77
2022/05/28 04:33:00;;;;;;;2.10;1.03;;;11.10;1.00;;;;;;5074293;28;20860;-76
2022/05/28 04:35:28;;;;;;;1.17;0.90;;;11.10;1.00;;;;;;5074750;28;20797;-77
2022/05/28 04:37:55;;;;;;;2.40;1.23;;;11.10;99.90;;;;;;5073742;28;20524;-76
2022/05/28 04:40:24;;;;;;;2.93;1.23;;;11.40;1.00;;;;;;5074703;28;21066;-76
2022/05/28 04:42:51;;;;;;;2.37;1.30;;;11.40;99.90;;;;;;5074543;28;21461;-76
2022/05/28 04:45:18;;;;;;;5.30;1.27;;;11.30;99.90;;;;;;5074506;28;20507;-76
2022/05/28 04:47:45;;;;;;;5.37;1.70;;;11.50;99.90;;;;;;5073143;28;20546;-76
2022/05/28 04:50:12;;;;;;;5.03;1.30;;;11.50;1.00;;;;;;5074226;28;20548;-76
2022/05/28 04:52:41;;;;;;;4.27;1.50;;;11.90;1.00;;;;;;5074510;28;20452;-76
2022/05/28 04:55:10;;;;;;;2.10;1.07;;;11.70;1.00;;;;;;5074448;28;20532;-77
2022/05/28 04:57:37;;;;;;;5.17;2.47;;;11.70;1.00;;;;;;5073552;28;21058;-76
2022/05/28 05:00:08;;;;;;;1.23;1.03;;;11.70;1.00;;;;;;5073813;28;20813;-73
2022/05/28 05:02:36;;;;;;;9.00;1.73;;;12.00;99.90;;;;;;5074237;28;20521;-76
2022/05/28 05:05:03;;;;;;;1.50;1.03;;;11.70;1.00;;;;;;5073417;28;20442;-77
2022/05/28 05:07:30;;;;;;;1.97;1.10;;;11.70;68.80;;;;;;5073535;28;20457;-76
2022/05/28 05:09:58;;;;;;;4.10;2.07;;;12.00;1.00;;;;;;5073269;28;20446;-74
2022/05/28 05:12:25;;;;;;;2.07;1.00;;;12.10;1.00;;;;;;5073580;28;20465;-76
2022/05/28 05:14:52;;;;;;;3.23;1.20;;;12.10;99.90;;;;;;5073051;28;20462;-76
2022/05/28 05:17:19;;;;;;;1.43;0.90;;;12.20;99.90;;;;;;5060287;28;20452;-76
2022/05/28 05:19:46;;;;;;;1.17;0.93;;;12.30;99.90;;;;;;5072634;28;20547;-74
2022/05/28 05:22:13;;;;;;;1.50;1.00;;;12.30;99.90;;;;;;5073464;28;21015;-75
2022/05/28 05:24:39;;;;;;;2.03;1.00;;;12.60;99.90;;;;;;5073240;28;20452;-72
2022/05/28 05:27:10;;;;;;;6.37;1.47;;;12.60;99.90;;;;;;5073907;28;20454;-76
2022/05/28 05:29:37;;;;;;;1.33;1.07;;;12.60;9.80;;;;;;5073203;28;20512;-76
2022/05/28 05:32:05;;;;;;;1.73;1.27;;;12.70;1.00;;;;;;5072687;28;20476;-75
2022/05/28 05:34:32;;;;;;;2.23;1.20;;;12.20;1.00;;;;;;5073405;28;20444;-76
2022/05/28 05:36:58;;;;;;;3.07;1.57;;;12.30;1.00;;;;;;5073106;28;20455;-75
2022/05/28 05:39:25;;;;;;;1.30;1.10;;;12.00;1.00;;;;;;5072965;28;20569;-76
2022/05/28 05:41:52;;;;;;;1.70;1.00;;;12.20;1.00;;;;;;5072762;28;20508;-75
2022/05/28 05:44:20;;;;;;;3.50;1.03;;;12.30;1.00;;;;;;5073498;28;20778;-75
2022/05/28 05:46:47;;;;;;;3.07;1.20;;;12.50;1.00;;;;;;5072580;28;20518;-75
2022/05/28 05:49:14;;;;;;;2.17;1.40;;;12.60;1.00;;;;;;5072473;28;20927;-76
2022/05/28 05:51:44;;;;;;;2.07;1.07;;;12.50;1.00;;;;;;5072446;28;20452;-75
2022/05/28 05:54:12;;;;;;;2.90;1.10;;;12.60;1.00;;;;;;5073032;28;20458;-75
2022/05/28 05:56:39;;;;;;;5.40;2.90;;;12.60;1.00;;;;;;5073195;28;20443;-77
2022/05/28 05:59:06;;;;;;;2.50;1.00;;;12.40;1.00;;;;;;5072490;28;20570;-77
2022/05/28 06:01:34;;;;;;;1.43;1.20;;;12.60;1.00;;;;;;5072551;28;20519;-78
2022/05/28 06:04:01;;;;;;;2.37;1.30;;;12.50;1.00;;;;;;5072307;28;20451;-75
2022/05/28 06:06:28;;;;;;;2.90;1.33;;;12.70;1.00;;;;;;5072896;28;20821;-75
2022/05/28 06:08:55;;;;;;;4.23;1.50;;;12.50;1.00;;;;;;5071878;28;20448;-76
2022/05/28 06:11:22;;;;;;;1.57;1.20;;;12.60;1.00;;;;;;5072874;28;20456;-75
2022/05/28 06:13:49;;;;;;;4.60;1.10;;;12.70;1.00;;;;;;5072139;28;20819;-75
2022/05/28 06:16:16;;;;;;;5.73;2.00;;;12.50;1.00;;;;;;5072590;28;20448;-76
2022/05/28 06:18:44;;;;;;;2.57;1.50;;;12.70;1.00;;;;;;5071484;28;20502;-75
2022/05/28 06:21:11;;;;;;;1.73;1.27;;;12.90;1.00;;;;;;5072444;28;20854;-75
2022/05/28 06:23:41;;;;;;;4.07;1.07;;;12.60;1.00;;;;;;5072547;28;20447;-76
2022/05/28 06:26:08;;;;;;;2.23;1.20;;;12.80;1.00;;;;;;5071335;28;20444;-76
2022/05/28 06:28:36;;;;;;;2.50;0.90;;;12.80;1.00;;;;;;5071994;28;20452;-76
2022/05/28 06:31:04;;;;;;;0.87;0.80;;;12.80;99.90;;;;;;5071551;28;20465;-76
2022/05/28 06:33:31;;;;;;;1.90;1.07;;;12.90;99.90;;;;;;5072309;28;20452;-77
2022/05/28 06:36:01;;;;;;;2.40;1.00;;;13.00;99.90;;;;;;5071863;28;20448;-75
2022/05/28 06:38:28;;;;;;;2.50;0.80;;;13.10;99.90;;;;;;5071440;28;20456;-76
2022/05/28 06:40:55;;;;;;;2.53;0.93;;;13.30;99.90;;;;;;5071768;28;20496;-76
2022/05/28 06:43:22;;;;;;;1.60;1.23;;;13.30;99.90;;;;;;5058547;28;21023;-76
2022/05/28 06:45:49;;;;;;;3.73;0.90;;;13.40;99.90;;;;;;5071318;28;20452;-75
2022/05/28 06:48:17;;;;;;;1.10;0.90;;;13.40;99.90;;;;;;5071554;28;20958;-76
2022/05/28 06:53:33;;;;;;;3.17;0.80;;;13.30;99.90;;;;;;5068275;28;20433;-76
2022/05/28 06:56:00;;;;;;;2.60;0.90;;;13.20;99.90;;;;;;5070982;28;20464;-76
2022/05/28 06:58:27;;;;;;;1.77;0.90;;;13.30;99.90;;;;;;5071570;28;20449;-75
2022/05/28 07:00:55;;;;;;;2.23;0.90;;;13.30;99.90;;;;;;5070650;28;20485;-75
2022/05/28 07:03:28;;;;;;;2.20;0.70;;;13.30;99.90;;;;;;5071698;28;20522;-75
2022/05/28 07:05:55;;;;;;;2.40;0.87;;;13.30;99.90;;;;;;5071156;28;20446;-76
2022/05/28 07:08:23;;;;;;;1.20;0.80;;;13.50;99.90;;;;;;5071142;28;20976;-76
2022/05/28 07:10:53;;;;;;;1.23;0.80;;;13.50;99.90;;;;;;5070658;28;20541;-76
2022/05/28 07:13:22;;;;;;;2.50;0.70;;;13.50;99.90;;;;;;5071675;28;20438;-76
2022/05/28 07:15:49;;;;;;;1.60;1.10;;;13.30;99.90;;;;;;5071010;28;20811;-76
2022/05/28 07:18:16;;;;;;;2.67;0.67;;;13.50;99.90;;;;;;5071170;28;20525;-76
2022/05/28 07:20:44;;;;;;;3.30;0.90;;;13.40;99.90;;;;;;5070977;28;20540;-76
2022/05/28 07:23:12;;;;;;;1.53;0.70;;;13.50;99.90;;;;;;5071302;28;20564;-75
2022/05/28 07:25:39;;;;;;;1.23;0.90;;;13.30;99.90;;;;;;5071472;28;20453;-75
2022/05/28 07:28:27;;;;;;;0.80;0.60;;;13.50;99.90;;;;;;5071166;28;20467;-76
2022/05/28 07:30:56;;;;;;;2.93;1.10;;;13.60;99.90;;;;;;5070682;28;20478;-76
2022/05/28 07:33:24;;;;;;;3.27;1.00;;;13.60;99.90;;;;;;5071467;28;20449;-76
2022/05/28 07:35:52;;;;;;;3.07;0.93;;;13.90;99.90;;;;;;5070344;28;21040;-76
2022/05/28 07:38:19;;;;;;;1.73;1.20;;;14.00;99.90;;;;;;5070786;28;20442;-75
2022/05/28 07:40:46;;;;;;;1.83;0.60;;;14.00;99.90;;;;;;5070872;28;20445;-76
2022/05/28 07:43:14;;;;;;;1.37;0.83;;;14.00;99.90;;;;;;5070997;28;21027;-75
2022/05/28 07:45:43;;;;;;;2.50;1.07;;;14.00;99.90;;;;;;5070675;28;20529;-75
2022/05/28 07:48:10;;;;;;;2.13;0.70;;;14.10;99.90;;;;;;5070754;28;20450;-74
2022/05/28 07:50:38;;;;;;;2.80;0.90;;;14.00;99.90;;;;;;5071498;28;20549;-75
2022/05/28 07:53:05;;;;;;;1.17;0.80;;;14.20;99.90;;;;;;5058045;28;20457;-75
2022/05/28 07:55:33;;;;;;;0.90;0.60;;;14.30;99.90;;;;;;5071225;28;20540;-76
2022/05/28 07:58:04;;;;;;;2.07;0.80;;;;;;;;;;5070451;28;20854;-75
2022/05/28 08:00:33;;;;;;;1.57;0.70;;;;;;;;;;5071355;28;20464;-76
2022/05/28 08:03:00;;;;;;;6.23;0.83;;;;;;;;;;5070295;28;20492;-75
2022/05/28 08:05:27;;;;;;;2.50;1.10;;;;;;;;;;5070707;28;20457;-75
2022/05/28 08:07:55;;;;;;;1.83;0.63;;;;;;;;;;5069823;28;20446;-76
2022/05/28 08:10:22;;;;;;;2.10;0.60;;;;;;;;;;5071115;28;20462;-75
2022/05/28 08:12:50;;;;;;;2.57;0.70;;;;;;;;;;5070442;28;20453;-75
2022/05/28 08:15:17;;;;;;;5.33;0.87;;;;;;;;;;5070880;28;20475;-75
2022/05/28 08:17:45;;;;;;;6.63;1.00;;;;;;;;;;5069630;28;20460;-75
2022/05/28 08:20:13;;;;;;;4.10;0.70;;;;;;;;;;5070678;28;20451;-75
2022/05/28 08:25:25;;;;;;;5.10;0.77;;;;;;;;;;5070810;28;20808;-75
2022/05/28 08:27:52;;;;;;;1.17;0.60;;;;;;;;;;5069931;28;20980;-75
2022/05/28 08:30:19;;;;;;;1.40;1.00;;;;;;;;;;5070493;28;20969;-75
2022/05/28 08:32:48;;;;;;;1.43;0.70;;;;;;;;;;5069662;28;20480;-74
2022/05/28 08:35:15;;;;;;;2.77;0.70;;;;;;;;;;5070894;28;20451;-75
2022/05/28 08:37:42;;;;;;;3.27;0.70;;;;;;;;;;5069473;28;20509;-74
2022/05/28 08:40:10;;;;;;;2.30;0.60;;;;;;;;;;5070963;28;20541;-75
2022/05/28 08:42:38;;;;;;;3.03;0.80;;;;;;;;;;5070540;28;20840;-74
2022/05/28 08:45:06;;;;;;;1.57;1.03;;;;;;;;;;5071052;28;20453;-75
2022/05/28 08:47:34;;;;;;;0.90;0.70;;;;;;;;;;5070250;28;20526;-76
2022/05/28 08:50:06;;;;;;;1.57;0.67;;;;;;;;;;5073596;28;20452;-76
2022/05/28 08:52:36;;;;;;;2.70;0.83;;;;;;;;;;5074352;28;20452;-74
2022/05/28 08:55:07;;;;;;;4.23;1.00;;;;;;;;;;5074034;28;20803;-74
2022/05/28 08:57:47;;;;;;;2.50;0.70;;;;;;;;;;5073806;28;20444;-75
2022/05/28 09:00:15;;;;;;;1.70;0.77;;;;;;;;;;5074274;28;20472;-75
2022/05/28 09:02:43;;;;;;;2.53;0.97;;;;;;;;;;5073199;28;20832;-74
2022/05/28 09:05:19;;;;;;;1.07;0.60;;;;;;;;;;5074006;28;20520;-74
2022/05/28 09:07:47;;;;;;;2.07;0.60;;;;;;;;;;5073121;28;20528;-75
2022/05/28 09:10:14;;;;;;;0.93;0.70;;;;;;;;;;5073961;28;20456;-75
2022/05/28 09:12:45;;;;;;;0.87;0.50;;;;;;;;;;5073397;28;20462;-73
2022/05/28 09:15:12;;;;;;;1.00;0.73;;;;;;;;;;5074002;28;20525;-75
2022/05/28 09:17:41;;;;;;;2.73;0.70;;;;;;;;;;5073166;28;20456;-75
2022/05/28 09:20:10;;;;;;;2.60;0.67;;;;;;;;;;5073516;28;20464;-75
2022/05/28 09:22:40;;;;;;;0.80;0.60;;;;;;;;;;5073455;28;20495;-75
2022/05/28 09:25:08;;;;;;;3.60;0.70;;;;;;;;;;5073397;28;20489;-74
2022/05/28 09:27:36;;;;;;;1.73;0.77;;;;;;;;;;5073091;28;20536;-75
2022/05/28 09:30:15;;;;;;;4.70;1.17;;;;;;;;;;5072707;28;20461;-74
2022/05/28 09:32:51;;;;;;;1.80;0.80;;;;;;;;;;5072899;28;20473;-75
2022/05/28 09:35:23;;;;;;;1.93;1.00;;;;;;;;;;5073578;28;20437;-75
2022/05/28 09:37:57;;;;;;;2.10;0.93;;;;;;;;;;5072409;28;20446;-75
2022/05/28 09:40:28;;;;;;;0.87;0.50;;;;;;;;;;5073385;28;20818;-76
2022/05/28 09:43:12;;;;;;;2.30;1.00;;;;;;;;;;5072643;28;20474;-75
2022/05/28 09:45:44;;;;;;;0.70;0.60;;;;;;;;;;5073403;28;20456;-75
2022/05/28 09:48:18;;;;;;;3.27;1.17;;;;;;;;;;5072724;28;20445;-75
2022/05/28 09:50:45;;;;;;;2.33;1.00;;;;;;;;;;5072623;28;20450;-74
2022/05/28 09:56:01;;;;;;;1.27;0.80;;;;;;;;;;5072263;28;20786;-75
2022/05/28 09:58:30;;;;;;;1.20;0.90;;;;;;;;;;5072666;28;20804;-75
2022/05/28 10:01:05;;;;;;;1.10;0.60;;;;;;;;;;5072227;28;20457;-75
2022/05/28 10:06:18;;;;;;;4.10;1.10;;;;;;;;;;5061652;28;20778;-75
2022/05/28 10:08:46;;;;;;;1.77;0.90;;;;;;;;;;5071395;28;20454;-75
2022/05/28 10:11:15;;;;;;;2.00;0.80;;;;;;;;;;5072660;28;20532;-75
2022/05/28 10:13:43;;;;;;;1.00;0.60;;;;;;;;;;5071755;28;20482;-74
2022/05/28 10:16:11;;;;;;;1.80;0.83;;;;;;;;;;5072561;28;20476;-74
2022/05/28 10:18:40;;;;;;;2.50;0.70;;;;;;;;;;5072038;28;20553;-75
2022/05/28 10:21:09;;;;;;;2.23;0.80;;;;;;;;;;5072664;28;20821;-74
2022/05/28 10:23:37;;;;;;;1.10;0.80;;;;;;;;;;5072357;28;20485;-74
2022/05/28 10:26:05;;;;;;;1.27;0.70;;;;;;;;;;5071826;28;20456;-74
2022/05/28 10:28:35;;;;;;;4.57;0.80;;;;;;;;;;5071896;28;20456;-74
2022/05/28 10:31:02;;;;;;;1.80;1.20;;;;;;;;;;5071211;28;20544;-74
2022/05/28 10:33:30;;;;;;;1.40;0.93;;;;;;;;;;5071685;28;21254;-75
2022/05/28 10:36:07;;;;;;;3.00;1.00;;;;;;;;;;5071606;28;20525;-73
2022/05/28 10:38:34;;;;;;;1.70;0.73;;;;;;;;;;5071381;28;20445;-75
2022/05/28 10:41:02;;;;;;;1.10;0.77;;;;;;;;;;5070942;28;20528;-75
2022/05/28 10:43:32;;;;;;;3.50;1.10;;;;;;;;;;5072212;28;20503;-75
2022/05/28 10:46:06;;;;;;;0.90;0.70;;;;;;;;;;5071195;28;20448;-75
2022/05/28 10:48:36;;;;;;;0.80;0.60;;;;;;;;;;5071504;28;20908;-76
2022/05/28 10:51:11;;;;;;;0.93;0.90;;;;;;;;;;5071443;28;20442;-74
2022/05/28 10:53:53;;;;;;;2.10;0.80;;;;;;;;;;5072224;28;20507;-75
2022/05/28 10:56:27;;;;;;;3.83;0.90;;;;;;;;;;5069929;28;20456;-75
2022/05/28 10:59:03;;;;;;;4.30;0.70;;;;;;;;;;5070993;28;20448;-75
2022/05/28 11:01:41;;;;;;;3.10;0.87;;;;;;;;;;5071890;28;20437;-74
2022/05/28 11:04:26;;;;;;;2.80;0.70;;;;;;;;;;5071943;28;20478;-74
2022/05/28 11:07:01;;;;;;;3.53;1.10;;;;;;;;;;5070619;28;20943;-73
2022/05/28 11:09:32;;;;;;;1.17;0.87;;;;;;;;;;5071681;28;20904;-75
2022/05/28 11:12:05;;;;;;;2.97;0.80;;;;;;;;;;5070315;28;20447;-75
2022/05/28 11:14:41;;;;;;;2.30;0.90;;;;;;;;;;5071914;28;20524;-75
2022/05/28 11:17:14;;;;;;;1.00;0.60;;;;;;;;;;5071472;28;20807;-75
2022/05/28 11:19:49;;;;;;;1.70;0.93;;;;;;;;;;5071293;28;20473;-74
2022/05/28 11:22:24;;;;;;;2.90;0.87;;;;;;;;;;5071903;28;20476;-74
2022/05/28 11:24:53;;;;;;;2.70;1.00;;;;;;;;;;5072161;28;20433;-75
2022/05/28 11:27:27;;;;;;;0.67;0.57;;;;;;;;;;5070876;28;20920;-74
2022/05/28 11:30:01;;;;;;;0.90;0.50;;;;;;;;;;5070774;28;20878;-75
2022/05/28 11:32:31;;;;;;;2.30;0.90;;;;;;;;;;5071080;28;20496;-74
2022/05/28 11:35:00;;;;;;;4.53;0.90;;;;;;;;;;5070526;28;20442;-74
2022/05/28 11:37:30;;;;;;;1.57;0.80;;;;;;;;;;5071005;28;20853;-75
2022/05/28 11:40:00;;;;;;;1.07;0.80;;;;;;;;;;5070764;28;20472;-75
2022/05/28 11:42:31;;;;;;;2.40;0.90;;;;;;;;;;5071398;28;20487;-75
2022/05/28 11:45:02;;;;;;;0.80;0.70;;;;;;;;;;5071001;28;20477;-74
2022/05/28 11:47:34;;;;;;;1.13;0.90;;;;;;;;;;5070814;28;20906;-74
2022/05/28 11:52:51;;;;;;;2.87;0.83;;;;;;;;;;5070494;28;20417;-75
2022/05/28 11:55:20;;;;;;;2.97;0.70;;;;;;;;;;5071291;28;20499;-75
2022/05/28 11:57:51;;;;;;;2.30;0.90;;;;;;;;;;5070202;28;20442;-75
2022/05/28 12:00:20;;;;;;;1.73;0.90;;;;;;;;;;5071390;28;20480;-74
2022/05/28 12:02:49;;;;;;;1.00;0.60;;;;;;;;;;5070324;28;20487;-74
2022/05/28 12:05:17;;;;;;;0.70;0.50;;;;;;;;;;5071036;28;20541;-76
2022/05/28 12:07:46;;;;;;;3.97;1.10;;;;;;;;;;5070190;28;20448;-76
2022/05/28 12:10:17;;;;;;;2.40;0.60;;;;;;;;;;5071276;28;20473;-75
2022/05/28 12:12:53;;;;;;;0.87;0.63;;;;;;;;;;5070635;28;20442;-75
2022/05/28 12:15:26;;;;;;;2.70;0.70;;;;;;;;;;5070989;28;20434;-74
2022/05/28 12:17:57;;;;;;;1.70;0.90;;;;;;;;;;5069906;28;20438;-74
2022/05/28 12:20:29;;;;;;;3.13;0.80;;;;;;;;;;5071024;28;20520;-75
2022/05/28 12:22:58;;;;;;;1.50;0.90;;;;;;;;;;5072413;28;20469;-75
2022/05/28 12:25:33;;;;;;;1.90;0.73;;;;;;;;;;5074800;28;20495;-75
2022/05/28 12:28:08;;;;;;;1.17;1.00;;;;;;;;;;5073760;28;20836;-75
2022/05/28 12:30:51;;;;;;;1.93;0.60;;;;;;;;;;5074580;28;20457;-75
2022/05/28 12:33:21;;;;;;;2.53;0.90;;;;;;;;;;5072591;28;20457;-75
2022/05/28 12:35:52;;;;;;;0.80;0.60;;;;;;;;;;5074356;28;20442;-75
2022/05/28 12:38:28;;;;;;;3.50;0.87;;;;;;;;;;5074484;28;20833;-74
2022/05/28 12:40:57;;;;;;;3.10;0.90;;;;;;;;;;5074284;28;20437;-74
2022/05/28 12:43:27;;;;;;;4.40;0.80;;;;;;;;;;5074711;28;20516;-75
2022/05/28 12:45:55;;;;;;;1.33;0.70;;;;;;;;;;5073908;28;20448;-75
2022/05/28 12:48:25;;;;;;;2.20;0.80;;;;;;;;;;5073819;28;20446;-75
2022/05/28 12:51:06;;;;;;;2.60;1.00;;;;;;;;;;5074093;28;20440;-75
2022/05/28 12:53:35;;;;;;;1.17;0.60;;;;;;;;;;5074643;28;20461;-76
2022/05/28 12:56:06;;;;;;;1.57;1.00;;;;;;;;;;5073597;28;20451;-76
2022/05/28 12:58:34;;;;;;;2.70;0.90;;;;;;;;;;5073555;28;20429;-74
2022/05/28 13:01:03;;;;;;;4.83;1.00;;;;;;;;;;5073592;28;20806;-76
2022/05/28 13:03:33;;;;;;;5.10;0.70;;;;;;;;;;5073772;28;20502;-73
2022/05/28 13:06:05;;;;;;;2.33;1.03;;;;;;;;;;5060149;28;20446;-74
2022/05/28 13:08:34;;;;;;;2.60;1.73;;;;;;;;;;5073327;28;20441;-75
2022/05/28 13:11:03;;;;;;;3.73;1.20;;;;;;;;;;5073552;28;20446;-74
2022/05/28 13:13:40;;;;;;;3.60;0.70;;;;;;;;;;5073643;28;20799;-74
2022/05/28 13:16:25;;;;;;;1.63;1.00;;;;;;;;;;5074186;28;20524;-73
2022/05/28 13:19:13;;;;;;;1.53;0.80;;;;;;;;;;5072886;28;20461;-75
2022/05/28 13:21:48;;;;;;;1.57;0.90;;;;;;;;;;5068442;28;20532;-74
2022/05/28 13:24:36;;;;;;;5.30;1.10;;;;;;;;;;5073857;28;20479;-74
2022/05/28 13:27:11;;;;;;;1.67;0.70;;;;;;;;;;5068175;28;20528;-76
2022/05/28 13:29:47;;;;;;;7.80;0.90;;;;;;;;;;5073935;28;20445;-75
2022/05/28 13:32:16;;;;;;;1.83;0.80;;;;;;;;;;5073761;28;20473;-75
2022/05/28 13:34:43;;;;;;;1.20;1.10;;;;;;;;;;5072767;28;20552;-74
2022/05/28 13:37:18;;;;;;;0.80;0.60;;;;;;;;;;5073163;28;20468;-74
2022/05/28 13:39:47;;;;;;;1.90;0.60;;;;;;;;;;5073122;28;20429;-74
2022/05/28 13:42:14;;;;;;;1.47;0.70;;;;;;;;;;5073656;28;20487;-74
2022/05/28 13:44:42;;;;;;;1.60;0.90;;;;;;;;;;5072825;28;20559;-73
2022/05/28 13:47:10;;;;;;;0.83;0.60;;;;;;;;;;5072995;28;20446;-75
2022/05/28 13:49:38;;;;;;;1.33;0.77;;;;;;;;;;5073320;28;20449;-75
2022/05/28 13:52:09;;;;;;;1.40;0.87;;;;;;;;;;5072917;28;20528;-75
2022/05/28 13:54:38;;;;;;;1.90;0.90;;;;;;;;;;5073248;28;20521;-75
2022/05/28 13:57:07;;;;;;;1.30;0.87;;;;;;;;;;5073170;28;20820;-75
2022/05/28 13:59:37;;;;;;;4.20;0.80;;;14.50;99.90;;;;;;5073209;28;20553;-75
2022/05/28 14:02:13;;;;;;;0.80;0.70;;;20.70;1.00;;;;;;5072481;28;20446;-74
2022/05/28 14:04:43;;;;;;;6.20;1.00;;;;;;;;;;5072639;28;20497;-75
2022/05/28 14:07:16;;;;;;;1.00;0.77;;;;;;;;;;5072261;28;20491;-74
2022/05/28 14:09:46;;;;;;;1.27;0.80;;;;;;;;;;5072045;28;20438;-75
2022/05/28 14:12:14;;;;;;;0.87;0.60;;;;;;;;;;5072599;28;20446;-75
2022/05/28 14:14:42;;;;;;;3.10;0.80;;;;;;;;;;5072117;28;20524;-74
2022/05/28 14:17:16;;;;;;;0.70;0.60;;;;;;;;;;5071772;28;20924;-74
2022/05/28 14:19:48;;;;;;;1.07;0.63;;;;;;;;;;5071802;28;20956;-74
2022/05/28 14:22:22;;;;;;;1.40;0.70;;;;;;;;;;5072628;28;20471;-75
2022/05/28 14:24:53;;;;;;;2.33;0.73;;;;;;;;;;5072020;28;20809;-76
2022/05/28 14:27:23;;;;;;;1.27;0.60;;;;;;;;;;5071971;28;20448;-75
2022/05/28 14:29:50;;;;;;;1.20;0.87;;;;;;;;;;5071632;28;20920;-75
2022/05/28 14:32:19;;;;;;;2.80;0.70;;;;;;;;;;5072005;28;20473;-75
2022/05/28 14:34:47;;;;;;;1.70;0.70;;;;;;;;;;5071728;28;20477;-75
2022/05/28 14:37:23;;;;;;;0.83;0.73;;;;;;;;;;5072004;28;20494;-75